sensor_id;sensor_type;location;lat;lon;timestamp;temperature;humidity
2625;DHT22;1322;53.256;10.386;2024-01-11T00:00:45;-2.70;99.90
2625;DHT22;1322;53.256;10.386;2024-01-11T00:03:10;-2.60;99.90
2625;DHT22;1322;53.256;10.386;2024-01-11T00:05:36;-2.60;99.90
2625;DHT22;1322;53.256;10.386;2024-01-11T00:08:02;-2.60;99.90
2625;DHT22;1322;53.256;10.386;2024-01-11T00:10:28;-2.60;99.90
2625;DHT22;1322;53.256;10.386;2024-01-11T00:12:53;-2.60;99.90
2625;DHT22;1322;53.256;10.386;2024-01-11T00:15:19;-2.60;99.90
2625;DHT22;1322;53.256;10.386;2024-01-11T00:17:44;-2.40;99.90
2625;DHT22;1322;53.256;10.386;2024-01-11T00:20:10;-2.40;99.90
2625;DHT22;1322;53.256;10.386;2024-01-11T00:22:36;-2.30;99.90
2625;DHT22;1322;53.256;10.386;2024-01-11T00:25:02;-2.30;99.90
2625;DHT22;1322;53.256;10.386;2024-01-11T00:27:28;-2.40;99.90
2625;DHT22;1322;53.256;10.386;2024-01-11T00:29:53;-2.30;99.90
2625;DHT22;1322;53.256;10.386;2024-01-11T00:32:19;-2.30;99.90
2625;DHT22;1322;53.256;10.386;2024-01-11T00:34:46;-2.20;99.90
2625;DHT22;1322;53.256;10.386;2024-01-11T00:37:12;-2.10;99.90
2625;DHT22;1322;53.256;10.386;2024-01-11T00:39:38;-2.10;99.90
2625;DHT22;1322;53.256;10.386;2024-01-11T00:42:03;-2.10;99.90
2625;DHT22;1322;53.256;10.386;2024-01-11T00:44:29;-2.00;99.90
2625;DHT22;1322;53.256;10.386;2024-01-11T00:46:55;-1.90;99.90
2625;DHT22;1322;53.256;10.386;2024-01-11T00:49:21;-1.90;99.90
2625;DHT22;1322;53.256;10.386;2024-01-11T00:51:47;-1.90;99.90
2625;DHT22;1322;53.256;10.386;2024-01-11T00:54:12;-1.80;99.90
2625;DHT22;1322;53.256;10.386;2024-01-11T00:56:38;-1.80;99.90
2625;DHT22;1322;53.256;10.386;2024-01-11T00:59:03;-1.80;99.90
2625;DHT22;1322;53.256;10.386;2024-01-11T01:01:29;-1.90;99.90
2625;DHT22;1322;53.256;10.386;2024-01-11T01:03:55;-2.00;99.90
2625;DHT22;1322;53.256;10.386;2024-01-11T01:06:21;-2.00;99.90
2625;DHT22;1322;53.256;10.386;2024-01-11T01:08:46;-2.10;99.90
2625;DHT22;1322;53.256;10.386;2024-01-11T01:11:12;-2.10;99.90
2625;DHT22;1322;53.256;10.386;2024-01-11T01:13:38;-2.00;99.90
2625;DHT22;1322;53.256;10.386;2024-01-11T01:16:03;-2.00;99.90
2625;DHT22;1322;53.256;10.386;2024-01-11T01:18:29;-1.90;99.90
2625;DHT22;1322;53.256;10.386;2024-01-11T01:20:55;-1.90;99.90
2625;DHT22;1322;53.256;10.386;2024-01-11T01:23:21;-2.00;99.90
2625;DHT22;1322;53.256;10.386;2024-01-11T01:25:46;-2.10;99.90
2625;DHT22;1322;53.256;10.386;2024-01-11T01:28:12;-2.30;99.90
2625;DHT22;1322;53.256;10.386;2024-01-11T01:30:37;-2.30;99.90
2625;DHT22;1322;53.256;10.386;2024-01-11T01:33:03;-2.30;99.90
2625;DHT22;1322;53.256;10.386;2024-01-11T01:35:29;-2.20;99.90
2625;DHT22;1322;53.256;10.386;2024-01-11T01:37:55;-2.10;99.90
2625;DHT22;1322;53.256;10.386;2024-01-11T01:40:20;-2.00;99.90
2625;DHT22;1322;53.256;10.386;2024-01-11T01:42:46;-1.90;99.90
2625;DHT22;1322;53.256;10.386;2024-01-11T01:45:12;-1.90;99.90
2625;DHT22;1322;53.256;10.386;2024-01-11T01:47:42;-1.90;99.90
2625;DHT22;1322;53.256;10.386;2024-01-11T01:50:10;-1.90;99.90
2625;DHT22;1322;53.256;10.386;2024-01-11T01:52:36;-2.00;99.90
2625;DHT22;1322;53.256;10.386;2024-01-11T01:55:04;-2.10;99.90
2625;DHT22;1322;53.256;10.386;2024-01-11T01:57:32;-2.10;99.90
2625;DHT22;1322;53.256;10.386;2024-01-11T01:59:58;-2.10;99.90
2625;DHT22;1322;53.256;10.386;2024-01-11T02:02:24;-2.10;99.90
2625;DHT22;1322;53.256;10.386;2024-01-11T02:04:50;-2.20;99.90
2625;DHT22;1322;53.256;10.386;2024-01-11T02:07:17;-2.20;99.90
2625;DHT22;1322;53.256;10.386;2024-01-11T02:09:44;-2.30;99.90
2625;DHT22;1322;53.256;10.386;2024-01-11T02:12:10;-2.30;99.90
2625;DHT22;1322;53.256;10.386;2024-01-11T02:14:38;-2.20;99.90
2625;DHT22;1322;53.256;10.386;2024-01-11T02:17:03;-2.20;99.90
2625;DHT22;1322;53.256;10.386;2024-01-11T02:19:29;-2.10;99.90
2625;DHT22;1322;53.256;10.386;2024-01-11T02:21:59;-2.20;99.90
2625;DHT22;1322;53.256;10.386;2024-01-11T02:24:26;-2.40;99.90
2625;DHT22;1322;53.256;10.386;2024-01-11T02:27:03;-2.60;99.90
2625;DHT22;1322;53.256;10.386;2024-01-11T02:29:31;-2.60;99.90
2625;DHT22;1322;53.256;10.386;2024-01-11T02:31:57;-2.60;99.90
2625;DHT22;1322;53.256;10.386;2024-01-11T02:34:24;-2.70;99.90
2625;DHT22;1322;53.256;10.386;2024-01-11T02:36:50;-2.90;99.90
2625;DHT22;1322;53.256;10.386;2024-01-11T02:39:16;-3.00;99.90
2625;DHT22;1322;53.256;10.386;2024-01-11T02:41:44;-2.90;99.90
2625;DHT22;1322;53.256;10.386;2024-01-11T02:44:09;-2.80;99.90
2625;DHT22;1322;53.256;10.386;2024-01-11T02:46:35;-2.80;99.90
2625;DHT22;1322;53.256;10.386;2024-01-11T02:49:01;-2.70;99.90
2625;DHT22;1322;53.256;10.386;2024-01-11T02:51:26;-2.60;99.90
2625;DHT22;1322;53.256;10.386;2024-01-11T02:53:52;-2.70;99.90
2625;DHT22;1322;53.256;10.386;2024-01-11T02:56:17;-2.60;99.90
2625;DHT22;1322;53.256;10.386;2024-01-11T02:58:43;-2.70;99.90
2625;DHT22;1322;53.256;10.386;2024-01-11T03:01:10;-2.80;99.90
2625;DHT22;1322;53.256;10.386;2024-01-11T03:03:35;-2.80;99.90
2625;DHT22;1322;53.256;10.386;2024-01-11T03:06:01;-2.90;99.90
2625;DHT22;1322;53.256;10.386;2024-01-11T03:08:27;-3.00;99.90
2625;DHT22;1322;53.256;10.386;2024-01-11T03:10:52;-3.00;99.90
2625;DHT22;1322;53.256;10.386;2024-01-11T03:13:18;-2.90;99.90
2625;DHT22;1322;53.256;10.386;2024-01-11T03:15:43;-2.80;99.90
2625;DHT22;1322;53.256;10.386;2024-01-11T03:18:09;-2.70;99.90
2625;DHT22;1322;53.256;10.386;2024-01-11T03:20:35;-2.50;99.90
2625;DHT22;1322;53.256;10.386;2024-01-11T03:23:00;-2.40;99.90
2625;DHT22;1322;53.256;10.386;2024-01-11T03:25:26;-2.30;99.90
2625;DHT22;1322;53.256;10.386;2024-01-11T03:27:52;-2.20;99.90
2625;DHT22;1322;53.256;10.386;2024-01-11T03:30:17;-2.20;99.90
2625;DHT22;1322;53.256;10.386;2024-01-11T03:32:43;-2.10;99.90
2625;DHT22;1322;53.256;10.386;2024-01-11T03:35:09;-2.10;99.90
2625;DHT22;1322;53.256;10.386;2024-01-11T03:37:35;-2.00;99.90
2625;DHT22;1322;53.256;10.386;2024-01-11T03:40:02;-1.90;99.90
2625;DHT22;1322;53.256;10.386;2024-01-11T03:42:29;-1.90;99.90
2625;DHT22;1322;53.256;10.386;2024-01-11T03:44:54;-1.90;99.90
2625;DHT22;1322;53.256;10.386;2024-01-11T03:47:20;-1.80;99.90
2625;DHT22;1322;53.256;10.386;2024-01-11T03:49:46;-1.80;99.90
2625;DHT22;1322;53.256;10.386;2024-01-11T03:52:11;-1.70;99.90
2625;DHT22;1322;53.256;10.386;2024-01-11T03:54:37;-1.70;99.90
2625;DHT22;1322;53.256;10.386;2024-01-11T03:57:03;-1.70;99.90
2625;DHT22;1322;53.256;10.386;2024-01-11T03:59:28;-1.70;99.90
2625;DHT22;1322;53.256;10.386;2024-01-11T04:01:55;-1.60;99.90
2625;DHT22;1322;53.256;10.386;2024-01-11T04:04:21;-1.60;99.90
2625;DHT22;1322;53.256;10.386;2024-01-11T04:06:48;-1.60;99.90
2625;DHT22;1322;53.256;10.386;2024-01-11T04:09:13;-1.60;99.90
2625;DHT22;1322;53.256;10.386;2024-01-11T04:11:39;-1.60;99.90
2625;DHT22;1322;53.256;10.386;2024-01-11T04:14:05;-1.70;99.90
2625;DHT22;1322;53.256;10.386;2024-01-11T04:16:31;-1.70;99.90
2625;DHT22;1322;53.256;10.386;2024-01-11T04:18:57;-1.70;99.90
2625;DHT22;1322;53.256;10.386;2024-01-11T04:21:24;-1.60;99.90
2625;DHT22;1322;53.256;10.386;2024-01-11T04:23:50;-1.60;99.90
2625;DHT22;1322;53.256;10.386;2024-01-11T04:26:16;-1.60;99.90
2625;DHT22;1322;53.256;10.386;2024-01-11T04:28:43;-1.70;99.90
2625;DHT22;1322;53.256;10.386;2024-01-11T04:31:08;-1.60;99.90
2625;DHT22;1322;53.256;10.386;2024-01-11T04:33:34;-1.70;99.90
2625;DHT22;1322;53.256;10.386;2024-01-11T04:35:59;-1.70;99.90
2625;DHT22;1322;53.256;10.386;2024-01-11T04:38:25;-1.60;99.90
2625;DHT22;1322;53.256;10.386;2024-01-11T04:40:51;-1.60;99.90
2625;DHT22;1322;53.256;10.386;2024-01-11T04:43:16;-1.60;99.90
2625;DHT22;1322;53.256;10.386;2024-01-11T04:45:42;-1.50;99.90
2625;DHT22;1322;53.256;10.386;2024-01-11T04:48:07;-1.50;99.90
2625;DHT22;1322;53.256;10.386;2024-01-11T04:50:33;-1.40;99.90
2625;DHT22;1322;53.256;10.386;2024-01-11T04:52:58;-1.40;99.90
2625;DHT22;1322;53.256;10.386;2024-01-11T04:55:24;-1.40;99.90
2625;DHT22;1322;53.256;10.386;2024-01-11T04:57:50;-1.50;99.90
2625;DHT22;1322;53.256;10.386;2024-01-11T05:00:15;-1.50;99.90
2625;DHT22;1322;53.256;10.386;2024-01-11T05:02:41;-1.40;99.90
2625;DHT22;1322;53.256;10.386;2024-01-11T05:05:07;-1.40;99.90
2625;DHT22;1322;53.256;10.386;2024-01-11T05:07:32;-1.40;99.90
2625;DHT22;1322;53.256;10.386;2024-01-11T05:10:00;-1.40;99.90
2625;DHT22;1322;53.256;10.386;2024-01-11T05:12:25;-1.30;99.90
2625;DHT22;1322;53.256;10.386;2024-01-11T05:14:51;-1.30;99.90
2625;DHT22;1322;53.256;10.386;2024-01-11T05:17:16;-1.20;99.90
2625;DHT22;1322;53.256;10.386;2024-01-11T05:19:42;-1.20;99.90
2625;DHT22;1322;53.256;10.386;2024-01-11T05:22:07;-1.30;99.90
2625;DHT22;1322;53.256;10.386;2024-01-11T05:24:33;-1.20;99.90
2625;DHT22;1322;53.256;10.386;2024-01-11T05:26:59;-1.20;99.90
2625;DHT22;1322;53.256;10.386;2024-01-11T05:29:24;-1.30;99.90
2625;DHT22;1322;53.256;10.386;2024-01-11T05:31:50;-1.40;99.90
2625;DHT22;1322;53.256;10.386;2024-01-11T05:34:16;-1.30;99.90
2625;DHT22;1322;53.256;10.386;2024-01-11T05:36:41;-1.30;99.90
2625;DHT22;1322;53.256;10.386;2024-01-11T05:39:07;-1.30;99.90
2625;DHT22;1322;53.256;10.386;2024-01-11T05:41:32;-1.20;99.90
2625;DHT22;1322;53.256;10.386;2024-01-11T05:43:58;-1.20;99.90
2625;DHT22;1322;53.256;10.386;2024-01-11T05:46:24;-1.10;99.90
2625;DHT22;1322;53.256;10.386;2024-01-11T05:48:49;-1.10;99.90
2625;DHT22;1322;53.256;10.386;2024-01-11T05:51:15;-1.10;99.90
2625;DHT22;1322;53.256;10.386;2024-01-11T05:53:41;-1.10;99.90
2625;DHT22;1322;53.256;10.386;2024-01-11T05:56:10;-1.10;99.90
2625;DHT22;1322;53.256;10.386;2024-01-11T05:58:36;-1.20;99.90
2625;DHT22;1322;53.256;10.386;2024-01-11T06:01:03;-1.20;99.90
2625;DHT22;1322;53.256;10.386;2024-01-11T06:03:29;-1.20;99.90
2625;DHT22;1322;53.256;10.386;2024-01-11T06:05:55;-1.20;99.90
2625;DHT22;1322;53.256;10.386;2024-01-11T06:08:21;-1.10;99.90
2625;DHT22;1322;53.256;10.386;2024-01-11T06:10:46;-1.00;99.90
2625;DHT22;1322;53.256;10.386;2024-01-11T06:13:12;-1.10;99.90
2625;DHT22;1322;53.256;10.386;2024-01-11T06:15:37;-1.10;99.90
2625;DHT22;1322;53.256;10.386;2024-01-11T06:18:03;-1.00;99.90
2625;DHT22;1322;53.256;10.386;2024-01-11T06:20:30;-1.00;99.90
2625;DHT22;1322;53.256;10.386;2024-01-11T06:22:55;-0.90;99.90
2625;DHT22;1322;53.256;10.386;2024-01-11T06:25:21;-0.80;99.90
2625;DHT22;1322;53.256;10.386;2024-01-11T06:27:47;-0.70;99.90
2625;DHT22;1322;53.256;10.386;2024-01-11T06:30:13;-0.60;99.90
2625;DHT22;1322;53.256;10.386;2024-01-11T06:32:38;-0.60;99.90
2625;DHT22;1322;53.256;10.386;2024-01-11T06:35:04;-0.50;99.90
2625;DHT22;1322;53.256;10.386;2024-01-11T06:37:30;-0.50;99.90
2625;DHT22;1322;53.256;10.386;2024-01-11T06:39:56;-0.50;99.90
2625;DHT22;1322;53.256;10.386;2024-01-11T06:42:22;-0.40;99.90
2625;DHT22;1322;53.256;10.386;2024-01-11T06:44:47;-0.40;99.90
2625;DHT22;1322;53.256;10.386;2024-01-11T06:47:13;-0.40;99.90
2625;DHT22;1322;53.256;10.386;2024-01-11T06:49:40;-0.40;99.90
2625;DHT22;1322;53.256;10.386;2024-01-11T06:52:06;-0.40;99.90
2625;DHT22;1322;53.256;10.386;2024-01-11T06:54:31;-0.40;99.90
2625;DHT22;1322;53.256;10.386;2024-01-11T06:56:58;-0.30;99.90
2625;DHT22;1322;53.256;10.386;2024-01-11T06:59:23;-0.20;99.90
2625;DHT22;1322;53.256;10.386;2024-01-11T07:01:49;-0.20;99.90
2625;DHT22;1322;53.256;10.386;2024-01-11T07:04:15;-0.20;99.90
2625;DHT22;1322;53.256;10.386;2024-01-11T07:06:41;-0.20;99.90
2625;DHT22;1322;53.256;10.386;2024-01-11T07:09:06;-0.20;99.90
2625;DHT22;1322;53.256;10.386;2024-01-11T07:11:32;-0.20;99.90
2625;DHT22;1322;53.256;10.386;2024-01-11T07:13:58;-0.40;99.90
2625;DHT22;1322;53.256;10.386;2024-01-11T07:16:24;-0.40;99.90
2625;DHT22;1322;53.256;10.386;2024-01-11T07:18:49;-0.30;99.90
2625;DHT22;1322;53.256;10.386;2024-01-11T07:21:24;-0.40;99.90
2625;DHT22;1322;53.256;10.386;2024-01-11T07:24:00;-0.40;99.90
2625;DHT22;1322;53.256;10.386;2024-01-11T07:26:26;-0.30;99.90
2625;DHT22;1322;53.256;10.386;2024-01-11T07:28:53;-0.30;99.90
2625;DHT22;1322;53.256;10.386;2024-01-11T07:31:22;-0.30;99.90
2625;DHT22;1322;53.256;10.386;2024-01-11T07:33:47;-0.30;99.90
2625;DHT22;1322;53.256;10.386;2024-01-11T07:36:13;-0.30;99.90
2625;DHT22;1322;53.256;10.386;2024-01-11T07:38:39;-0.30;99.90
2625;DHT22;1322;53.256;10.386;2024-01-11T07:41:04;-0.40;99.90
2625;DHT22;1322;53.256;10.386;2024-01-11T07:43:30;-0.50;99.90
2625;DHT22;1322;53.256;10.386;2024-01-11T07:45:57;-0.50;99.90
2625;DHT22;1322;53.256;10.386;2024-01-11T07:48:23;-0.50;99.90
2625;DHT22;1322;53.256;10.386;2024-01-11T07:50:49;-0.50;99.90
2625;DHT22;1322;53.256;10.386;2024-01-11T07:53:15;-0.50;99.90
2625;DHT22;1322;53.256;10.386;2024-01-11T07:55:41;-0.60;99.90
2625;DHT22;1322;53.256;10.386;2024-01-11T07:58:07;-0.60;99.90
2625;DHT22;1322;53.256;10.386;2024-01-11T08:00:32;-0.70;99.90
2625;DHT22;1322;53.256;10.386;2024-01-11T08:02:59;-0.70;99.90
2625;DHT22;1322;53.256;10.386;2024-01-11T08:05:25;-0.70;99.90
2625;DHT22;1322;53.256;10.386;2024-01-11T08:07:50;-0.70;99.90
2625;DHT22;1322;53.256;10.386;2024-01-11T08:10:16;-0.70;99.90
2625;DHT22;1322;53.256;10.386;2024-01-11T08:12:42;-0.70;99.90
2625;DHT22;1322;53.256;10.386;2024-01-11T08:15:08;-0.60;99.90
2625;DHT22;1322;53.256;10.386;2024-01-11T08:17:38;-0.60;99.90
2625;DHT22;1322;53.256;10.386;2024-01-11T08:20:04;-0.60;99.90
2625;DHT22;1322;53.256;10.386;2024-01-11T08:22:33;-0.50;99.90
2625;DHT22;1322;53.256;10.386;2024-01-11T08:25:02;-0.50;99.90
2625;DHT22;1322;53.256;10.386;2024-01-11T08:27:27;-0.40;99.90
2625;DHT22;1322;53.256;10.386;2024-01-11T08:29:53;-0.30;99.90
2625;DHT22;1322;53.256;10.386;2024-01-11T08:32:19;-0.30;99.90
2625;DHT22;1322;53.256;10.386;2024-01-11T08:34:44;-0.20;99.90
2625;DHT22;1322;53.256;10.386;2024-01-11T08:37:10;-0.30;99.90
2625;DHT22;1322;53.256;10.386;2024-01-11T08:39:35;-0.30;99.90
2625;DHT22;1322;53.256;10.386;2024-01-11T08:42:01;-0.10;99.90
2625;DHT22;1322;53.256;10.386;2024-01-11T08:44:27;0.00;99.90
2625;DHT22;1322;53.256;10.386;2024-01-11T08:46:52;0.10;99.90
2625;DHT22;1322;53.256;10.386;2024-01-11T08:49:18;0.20;99.90
2625;DHT22;1322;53.256;10.386;2024-01-11T08:51:44;0.20;99.90
2625;DHT22;1322;53.256;10.386;2024-01-11T08:54:10;0.20;99.90
2625;DHT22;1322;53.256;10.386;2024-01-11T08:56:36;0.20;99.90
2625;DHT22;1322;53.256;10.386;2024-01-11T08:59:02;0.20;99.90
2625;DHT22;1322;53.256;10.386;2024-01-11T09:01:28;0.30;99.90
2625;DHT22;1322;53.256;10.386;2024-01-11T09:03:54;0.30;99.90
2625;DHT22;1322;53.256;10.386;2024-01-11T09:06:20;0.30;99.90
2625;DHT22;1322;53.256;10.386;2024-01-11T09:08:45;0.30;99.90
2625;DHT22;1322;53.256;10.386;2024-01-11T09:11:11;0.40;99.90
2625;DHT22;1322;53.256;10.386;2024-01-11T09:13:37;0.50;99.90
2625;DHT22;1322;53.256;10.386;2024-01-11T09:16:03;0.60;99.90
2625;DHT22;1322;53.256;10.386;2024-01-11T09:18:28;0.50;99.90
2625;DHT22;1322;53.256;10.386;2024-01-11T09:20:54;0.50;99.90
2625;DHT22;1322;53.256;10.386;2024-01-11T09:23:21;0.50;99.90
2625;DHT22;1322;53.256;10.386;2024-01-11T09:25:47;0.60;99.90
2625;DHT22;1322;53.256;10.386;2024-01-11T09:28:12;0.70;99.90
2625;DHT22;1322;53.256;10.386;2024-01-11T09:30:38;0.80;99.90
2625;DHT22;1322;53.256;10.386;2024-01-11T09:33:04;1.00;99.90
2625;DHT22;1322;53.256;10.386;2024-01-11T09:35:30;1.20;99.90
2625;DHT22;1322;53.256;10.386;2024-01-11T09:37:55;1.30;99.90
2625;DHT22;1322;53.256;10.386;2024-01-11T09:40:21;1.40;99.90
2625;DHT22;1322;53.256;10.386;2024-01-11T09:42:47;1.50;99.90
2625;DHT22;1322;53.256;10.386;2024-01-11T09:45:16;1.60;99.90
2625;DHT22;1322;53.256;10.386;2024-01-11T09:47:43;1.70;99.90
2625;DHT22;1322;53.256;10.386;2024-01-11T09:50:11;1.80;99.90
2625;DHT22;1322;53.256;10.386;2024-01-11T09:52:46;1.90;99.90
2625;DHT22;1322;53.256;10.386;2024-01-11T09:55:13;1.90;99.90
2625;DHT22;1322;53.256;10.386;2024-01-11T09:57:42;1.90;99.90
2625;DHT22;1322;53.256;10.386;2024-01-11T10:00:10;2.00;99.90
2625;DHT22;1322;53.256;10.386;2024-01-11T10:02:38;2.10;99.90
2625;DHT22;1322;53.256;10.386;2024-01-11T10:05:05;2.10;99.90
2625;DHT22;1322;53.256;10.386;2024-01-11T10:07:32;2.20;99.90
2625;DHT22;1322;53.256;10.386;2024-01-11T10:09:59;2.30;99.90
2625;DHT22;1322;53.256;10.386;2024-01-11T10:12:29;2.40;99.90
2625;DHT22;1322;53.256;10.386;2024-01-11T10:14:54;2.50;99.90
2625;DHT22;1322;53.256;10.386;2024-01-11T10:17:20;2.50;99.90
2625;DHT22;1322;53.256;10.386;2024-01-11T10:19:46;2.40;99.90
2625;DHT22;1322;53.256;10.386;2024-01-11T10:22:12;2.40;99.90
2625;DHT22;1322;53.256;10.386;2024-01-11T10:24:42;2.50;99.90
2625;DHT22;1322;53.256;10.386;2024-01-11T10:27:11;2.50;99.90
2625;DHT22;1322;53.256;10.386;2024-01-11T10:29:37;2.50;99.90
2625;DHT22;1322;53.256;10.386;2024-01-11T10:32:06;2.60;99.90
2625;DHT22;1322;53.256;10.386;2024-01-11T10:34:31;2.60;99.90
2625;DHT22;1322;53.256;10.386;2024-01-11T10:36:57;2.70;99.90
2625;DHT22;1322;53.256;10.386;2024-01-11T10:39:25;2.70;99.90
2625;DHT22;1322;53.256;10.386;2024-01-11T10:41:53;2.60;99.90
2625;DHT22;1322;53.256;10.386;2024-01-11T10:44:22;2.60;99.90
2625;DHT22;1322;53.256;10.386;2024-01-11T10:46:49;2.60;99.90
2625;DHT22;1322;53.256;10.386;2024-01-11T10:49:20;2.50;99.90
2625;DHT22;1322;53.256;10.386;2024-01-11T10:52:04;2.60;99.90
2625;DHT22;1322;53.256;10.386;2024-01-11T10:54:32;2.60;99.90
2625;DHT22;1322;53.256;10.386;2024-01-11T10:57:00;2.70;99.90
2625;DHT22;1322;53.256;10.386;2024-01-11T10:59:27;2.70;99.90
2625;DHT22;1322;53.256;10.386;2024-01-11T11:01:53;2.70;99.90
2625;DHT22;1322;53.256;10.386;2024-01-11T11:04:21;2.70;99.90
2625;DHT22;1322;53.256;10.386;2024-01-11T11:06:50;2.70;99.90
2625;DHT22;1322;53.256;10.386;2024-01-11T11:09:17;2.70;99.90
2625;DHT22;1322;53.256;10.386;2024-01-11T11:11:45;2.70;99.90
2625;DHT22;1322;53.256;10.386;2024-01-11T11:14:14;2.60;99.90
2625;DHT22;1322;53.256;10.386;2024-01-11T11:16:40;2.70;99.90
2625;DHT22;1322;53.256;10.386;2024-01-11T11:19:06;2.80;99.90
2625;DHT22;1322;53.256;10.386;2024-01-11T11:21:32;2.90;99.90
2625;DHT22;1322;53.256;10.386;2024-01-11T11:23:58;2.90;99.90
2625;DHT22;1322;53.256;10.386;2024-01-11T11:26:26;2.80;99.90
2625;DHT22;1322;53.256;10.386;2024-01-11T11:28:53;2.80;99.90
2625;DHT22;1322;53.256;10.386;2024-01-11T11:31:42;2.80;99.90
2625;DHT22;1322;53.256;10.386;2024-01-11T11:34:11;2.80;99.90
2625;DHT22;1322;53.256;10.386;2024-01-11T11:36:39;2.60;99.90
2625;DHT22;1322;53.256;10.386;2024-01-11T11:39:05;2.70;99.90
2625;DHT22;1322;53.256;10.386;2024-01-11T11:41:31;2.70;99.90
2625;DHT22;1322;53.256;10.386;2024-01-11T11:44:04;2.80;99.90
2625;DHT22;1322;53.256;10.386;2024-01-11T11:46:31;2.90;99.90
2625;DHT22;1322;53.256;10.386;2024-01-11T11:48:57;3.00;99.90
2625;DHT22;1322;53.256;10.386;2024-01-11T11:51:23;2.90;99.90
2625;DHT22;1322;53.256;10.386;2024-01-11T11:53:51;2.80;99.90
2625;DHT22;1322;53.256;10.386;2024-01-11T11:56:25;2.70;99.90
2625;DHT22;1322;53.256;10.386;2024-01-11T11:58:52;2.70;99.90
2625;DHT22;1322;53.256;10.386;2024-01-11T12:01:20;2.70;99.90
2625;DHT22;1322;53.256;10.386;2024-01-11T12:03:46;2.60;99.90
2625;DHT22;1322;53.256;10.386;2024-01-11T12:06:19;2.70;99.90
2625;DHT22;1322;53.256;10.386;2024-01-11T12:08:47;2.80;99.90
2625;DHT22;1322;53.256;10.386;2024-01-11T12:11:19;2.90;99.90
2625;DHT22;1322;53.256;10.386;2024-01-11T12:13:45;2.80;99.90
2625;DHT22;1322;53.256;10.386;2024-01-11T12:16:11;2.90;99.90
2625;DHT22;1322;53.256;10.386;2024-01-11T12:18:37;3.00;99.90
2625;DHT22;1322;53.256;10.386;2024-01-11T12:21:03;3.00;99.90
2625;DHT22;1322;53.256;10.386;2024-01-11T12:23:29;3.10;99.90
2625;DHT22;1322;53.256;10.386;2024-01-11T12:25:58;3.20;99.90
2625;DHT22;1322;53.256;10.386;2024-01-11T12:28:26;3.20;99.90
2625;DHT22;1322;53.256;10.386;2024-01-11T12:30:51;3.20;99.90
2625;DHT22;1322;53.256;10.386;2024-01-11T12:33:18;3.10;99.90
2625;DHT22;1322;53.256;10.386;2024-01-11T12:35:44;3.10;99.90
2625;DHT22;1322;53.256;10.386;2024-01-11T12:38:10;3.10;99.90
2625;DHT22;1322;53.256;10.386;2024-01-11T12:40:37;3.10;99.90
2625;DHT22;1322;53.256;10.386;2024-01-11T12:43:03;3.10;99.90
2625;DHT22;1322;53.256;10.386;2024-01-11T12:45:29;3.10;99.90
2625;DHT22;1322;53.256;10.386;2024-01-11T12:48:01;2.90;99.90
2625;DHT22;1322;53.256;10.386;2024-01-11T12:50:29;2.70;99.90
2625;DHT22;1322;53.256;10.386;2024-01-11T12:55:36;2.50;99.90
2625;DHT22;1322;53.256;10.386;2024-01-11T12:58:06;2.40;99.90
2625;DHT22;1322;53.256;10.386;2024-01-11T13:00:32;2.40;99.90
2625;DHT22;1322;53.256;10.386;2024-01-11T13:02:58;2.30;99.90
2625;DHT22;1322;53.256;10.386;2024-01-11T13:05:25;2.30;99.90
2625;DHT22;1322;53.256;10.386;2024-01-11T13:07:50;2.30;99.90
2625;DHT22;1322;53.256;10.386;2024-01-11T13:10:16;2.20;99.90
2625;DHT22;1322;53.256;10.386;2024-01-11T13:12:42;2.20;99.90
2625;DHT22;1322;53.256;10.386;2024-01-11T13:15:08;2.20;99.90
2625;DHT22;1322;53.256;10.386;2024-01-11T13:17:34;2.30;99.90
2625;DHT22;1322;53.256;10.386;2024-01-11T13:20:00;2.30;99.90
2625;DHT22;1322;53.256;10.386;2024-01-11T13:22:26;2.30;99.90
2625;DHT22;1322;53.256;10.386;2024-01-11T13:24:52;2.30;99.90
2625;DHT22;1322;53.256;10.386;2024-01-11T13:27:18;2.30;99.90
2625;DHT22;1322;53.256;10.386;2024-01-11T13:29:51;2.30;99.90
2625;DHT22;1322;53.256;10.386;2024-01-11T13:32:19;2.30;99.90
2625;DHT22;1322;53.256;10.386;2024-01-11T13:34:47;2.30;99.90
2625;DHT22;1322;53.256;10.386;2024-01-11T13:37:13;2.30;99.90
2625;DHT22;1322;53.256;10.386;2024-01-11T13:39:38;2.40;99.90
2625;DHT22;1322;53.256;10.386;2024-01-11T13:42:04;2.50;99.90
2625;DHT22;1322;53.256;10.386;2024-01-11T13:44:34;2.50;99.90
2625;DHT22;1322;53.256;10.386;2024-01-11T13:47:00;2.50;99.90
2625;DHT22;1322;53.256;10.386;2024-01-11T13:49:26;2.60;99.90
2625;DHT22;1322;53.256;10.386;2024-01-11T13:51:51;2.70;99.90
2625;DHT22;1322;53.256;10.386;2024-01-11T13:54:17;2.70;99.90
2625;DHT22;1322;53.256;10.386;2024-01-11T13:56:42;2.70;99.90
2625;DHT22;1322;53.256;10.386;2024-01-11T13:59:08;2.60;99.90
2625;DHT22;1322;53.256;10.386;2024-01-11T14:01:33;2.70;99.90
2625;DHT22;1322;53.256;10.386;2024-01-11T14:03:59;2.60;99.90
2625;DHT22;1322;53.256;10.386;2024-01-11T14:06:25;2.60;99.90
2625;DHT22;1322;53.256;10.386;2024-01-11T14:08:50;2.70;99.90
2625;DHT22;1322;53.256;10.386;2024-01-11T14:11:16;2.50;99.90
2625;DHT22;1322;53.256;10.386;2024-01-11T14:13:41;2.50;99.90
2625;DHT22;1322;53.256;10.386;2024-01-11T14:16:07;2.50;99.90
2625;DHT22;1322;53.256;10.386;2024-01-11T14:18:33;2.60;99.90
2625;DHT22;1322;53.256;10.386;2024-01-11T14:20:58;2.60;99.90
2625;DHT22;1322;53.256;10.386;2024-01-11T14:23:24;2.60;99.90
2625;DHT22;1322;53.256;10.386;2024-01-11T14:25:50;2.60;99.90
2625;DHT22;1322;53.256;10.386;2024-01-11T14:28:16;2.50;99.90
2625;DHT22;1322;53.256;10.386;2024-01-11T14:30:42;2.60;99.90
2625;DHT22;1322;53.256;10.386;2024-01-11T14:33:07;2.60;99.90
2625;DHT22;1322;53.256;10.386;2024-01-11T14:35:33;2.70;99.90
2625;DHT22;1322;53.256;10.386;2024-01-11T14:37:58;2.70;99.90
2625;DHT22;1322;53.256;10.386;2024-01-11T14:40:24;2.70;99.90
2625;DHT22;1322;53.256;10.386;2024-01-11T14:42:50;2.60;99.90
2625;DHT22;1322;53.256;10.386;2024-01-11T14:45:16;2.70;99.90
2625;DHT22;1322;53.256;10.386;2024-01-11T14:47:42;2.80;99.90
2625;DHT22;1322;53.256;10.386;2024-01-11T14:50:08;2.70;99.90
2625;DHT22;1322;53.256;10.386;2024-01-11T14:52:37;2.70;99.90
2625;DHT22;1322;53.256;10.386;2024-01-11T14:55:04;2.70;99.90
2625;DHT22;1322;53.256;10.386;2024-01-11T14:57:31;2.60;99.90
2625;DHT22;1322;53.256;10.386;2024-01-11T14:59:56;2.70;99.90
2625;DHT22;1322;53.256;10.386;2024-01-11T15:02:22;2.80;99.90
2625;DHT22;1322;53.256;10.386;2024-01-11T15:04:48;2.80;99.90
2625;DHT22;1322;53.256;10.386;2024-01-11T15:07:14;2.70;99.90
2625;DHT22;1322;53.256;10.386;2024-01-11T15:09:40;2.60;99.90
2625;DHT22;1322;53.256;10.386;2024-01-11T15:12:05;2.50;99.90
2625;DHT22;1322;53.256;10.386;2024-01-11T15:14:31;2.70;99.90
2625;DHT22;1322;53.256;10.386;2024-01-11T15:16:57;2.60;99.90
2625;DHT22;1322;53.256;10.386;2024-01-11T15:19:22;2.70;99.90
2625;DHT22;1322;53.256;10.386;2024-01-11T15:21:48;2.70;99.90
2625;DHT22;1322;53.256;10.386;2024-01-11T15:24:14;2.70;99.90
2625;DHT22;1322;53.256;10.386;2024-01-11T15:26:40;2.70;99.90
2625;DHT22;1322;53.256;10.386;2024-01-11T15:29:06;2.60;99.90
2625;DHT22;1322;53.256;10.386;2024-01-11T15:31:32;2.50;99.90
2625;DHT22;1322;53.256;10.386;2024-01-11T15:33:57;2.50;99.90
2625;DHT22;1322;53.256;10.386;2024-01-11T15:36:23;2.40;99.90
2625;DHT22;1322;53.256;10.386;2024-01-11T15:38:49;2.40;99.90
2625;DHT22;1322;53.256;10.386;2024-01-11T15:41:15;2.40;99.90
2625;DHT22;1322;53.256;10.386;2024-01-11T15:43:40;2.30;99.90
2625;DHT22;1322;53.256;10.386;2024-01-11T15:46:07;2.30;99.90
2625;DHT22;1322;53.256;10.386;2024-01-11T15:48:33;2.30;99.90